createdAt,value
2017-07-09T03:54:24.370Z,5.80
2017-07-09T03:56:51.154Z,7.37
2017-07-09T03:59:17.913Z,3.80
2017-07-09T04:01:44.704Z,5.63
2017-07-09T04:04:11.468Z,5.67
2017-07-09T04:06:38.222Z,4.03
2017-07-09T04:09:05.843Z,31.30
2017-07-09T04:11:32.608Z,45.63
2017-07-09T04:13:59.355Z,48.77
2017-07-09T04:16:26.143Z,50.50
2017-07-09T04:18:52.895Z,50.10
2017-07-09T04:21:19.654Z,53.60
2017-07-09T04:23:46.455Z,58.83
2017-07-09T04:26:13.223Z,62.93
2017-07-09T04:28:39.991Z,47.70
2017-07-09T04:31:06.782Z,47.67
2017-07-09T04:33:33.532Z,36.97
2017-07-09T04:36:00.275Z,49.20
2017-07-09T04:38:27.066Z,43.50
2017-07-09T04:40:53.834Z,35.43
2017-07-09T04:43:20.575Z,48.43
2017-07-09T04:45:47.378Z,42.40
2017-07-09T04:48:14.128Z,46.63
2017-07-09T04:50:41.190Z,44.10
2017-07-09T04:53:07.992Z,44.57
2017-07-09T04:55:34.737Z,45.17
2017-07-09T04:58:01.503Z,45.57
2017-07-09T05:00:28.856Z,49.40
2017-07-09T05:02:55.608Z,49.60
2017-07-09T05:05:22.356Z,53.63
2017-07-09T05:07:49.159Z,27.13
2017-07-09T05:10:15.908Z,43.00
2017-07-09T05:12:42.697Z,12.63
2017-07-09T05:15:09.489Z,13.23
2017-07-09T05:17:36.249Z,33.13
2017-07-09T05:20:03.018Z,5.73
2017-07-09T05:22:29.806Z,4.03
2017-07-09T05:24:56.566Z,4.50
2017-07-09T05:27:23.964Z,6.00
2017-07-09T05:29:50.744Z,5.30
2017-07-09T05:32:17.483Z,8.00
2017-07-09T05:34:44.256Z,8.40
2017-07-09T05:37:11.046Z,3.67
2017-07-09T05:39:37.820Z,4.10
2017-07-09T05:42:04.569Z,6.30
2017-07-09T05:44:31.357Z,2.70
2017-07-09T05:46:58.095Z,3.37
2017-07-09T05:49:24.867Z,4.10
2017-07-09T05:51:51.862Z,3.80
2017-07-09T05:54:18.627Z,7.53
2017-07-09T05:56:45.372Z,2.43
2017-07-09T05:59:12.152Z,5.63
2017-07-09T06:01:38.911Z,4.03
2017-07-09T06:04:05.667Z,5.80
2017-07-09T06:06:32.439Z,4.03
2017-07-09T06:08:59.199Z,2.10
2017-07-09T06:11:25.940Z,1.67
2017-07-09T06:13:52.728Z,1.73
2017-07-09T06:16:19.467Z,5.57
2017-07-09T06:18:46.209Z,6.23
2017-07-09T06:21:13.020Z,5.20
2017-07-09T06:23:39.778Z,2.87
2017-07-09T06:26:06.563Z,1.30
2017-07-09T06:28:33.355Z,1.30
2017-07-09T06:31:00.106Z,1.97
2017-07-09T06:33:26.862Z,1.73
2017-07-09T06:35:53.663Z,4.20
2017-07-09T06:38:20.418Z,2.90
2017-07-09T06:40:47.178Z,1.50
2017-07-09T06:43:13.989Z,2.63
2017-07-09T06:45:40.732Z,5.60
2017-07-09T06:48:07.473Z,2.10
2017-07-09T06:50:34.286Z,4.43
2017-07-09T06:53:01.035Z,1.17
2017-07-09T06:55:28.223Z,2.90
2017-07-09T06:57:55.007Z,2.03
2017-07-09T07:00:21.774Z,2.60
2017-07-09T07:02:48.535Z,1.80
2017-07-09T07:05:15.335Z,2.00
2017-07-09T07:07:42.071Z,2.60
2017-07-09T07:10:08.826Z,1.10
2017-07-09T07:12:35.625Z,2.50
2017-07-09T07:15:03.413Z,5.80
2017-07-09T07:17:30.152Z,4.30
2017-07-09T07:19:56.939Z,1.57
2017-07-09T07:22:23.693Z,1.63
2017-07-09T07:24:50.456Z,2.20
2017-07-09T07:27:17.248Z,1.77
2017-07-09T07:29:44.287Z,4.13
2017-07-09T07:32:11.038Z,2.40
2017-07-09T07:34:37.816Z,0.90
2017-07-09T07:37:04.567Z,1.20
2017-07-09T07:39:31.321Z,1.70
2017-07-09T07:41:58.117Z,2.00
2017-07-09T07:44:24.847Z,3.73
2017-07-09T07:46:51.603Z,1.00
2017-07-09T07:49:18.437Z,2.67
2017-07-09T07:51:45.933Z,4.27
2017-07-09T07:54:12.696Z,2.10
2017-07-09T07:56:39.486Z,3.70
2017-07-09T07:59:06.247Z,1.70
2017-07-09T08:01:32.995Z,1.90
2017-07-09T08:03:59.776Z,2.80
2017-07-09T08:06:26.516Z,2.10
2017-07-09T08:08:53.251Z,3.50
2017-07-09T08:11:20.035Z,3.90
2017-07-09T08:13:46.770Z,1.63
2017-07-09T08:16:14.258Z,5.33
2017-07-09T08:18:41.043Z,3.13
2017-07-09T08:21:07.832Z,2.10
2017-07-09T08:23:34.594Z,2.33
2017-07-09T08:26:01.391Z,3.37
2017-07-09T08:28:28.132Z,10.57
2017-07-09T08:30:54.894Z,1.73
2017-07-09T08:33:21.673Z,2.70
2017-07-09T08:35:48.431Z,1.83
2017-07-09T08:38:15.204Z,1.90
2017-07-09T08:40:41.979Z,3.63
2017-07-09T08:43:08.716Z,1.80
2017-07-09T08:45:35.464Z,1.83
2017-07-09T08:48:02.266Z,1.90
2017-07-09T08:50:29.015Z,1.30
2017-07-09T08:52:55.782Z,1.83
2017-07-09T08:55:22.579Z,1.50
2017-07-09T08:57:49.347Z,2.47
2017-07-09T09:00:16.092Z,3.33
2017-07-09T09:02:42.884Z,2.03
2017-07-09T09:05:09.647Z,1.30
2017-07-09T09:07:36.399Z,4.53
2017-07-09T09:10:03.190Z,1.10
2017-07-09T09:12:30.269Z,1.57
2017-07-09T09:14:57.635Z,4.67
2017-07-09T09:17:24.443Z,4.60
2017-07-09T09:19:51.189Z,1.57
2017-07-09T09:22:17.927Z,4.40
2017-07-09T09:24:45.065Z,2.10
2017-07-09T09:27:11.818Z,3.67
2017-07-09T09:29:38.579Z,2.40
2017-07-09T09:32:05.374Z,8.03
2017-07-09T09:34:32.124Z,5.00
2017-07-09T09:36:58.863Z,1.90
2017-07-09T09:39:25.639Z,3.43
2017-07-09T09:41:52.377Z,4.63
2017-07-09T09:44:19.140Z,2.30
2017-07-09T09:46:45.924Z,2.50
2017-07-09T09:49:12.691Z,3.57
2017-07-09T09:51:39.432Z,1.70
2017-07-09T09:54:06.209Z,4.47
2017-07-09T09:56:32.986Z,3.50
2017-07-09T09:58:59.722Z,1.60
2017-07-09T10:01:26.526Z,1.73
2017-07-09T10:03:53.287Z,2.57
2017-07-09T10:06:20.024Z,4.10
2017-07-09T10:08:47.419Z,1.67
2017-07-09T10:11:14.235Z,4.03
2017-07-09T10:13:41.648Z,2.10
2017-07-09T10:16:08.432Z,5.13
2017-07-09T10:18:36.180Z,1.40
2017-07-09T10:21:02.930Z,2.03
2017-07-09T10:23:29.750Z,1.60
2017-07-09T10:25:56.632Z,1.93
2017-07-09T10:28:23.535Z,2.10
2017-07-09T10:30:50.329Z,3.33
2017-07-09T10:33:17.091Z,5.40
2017-07-09T10:35:43.823Z,4.80
2017-07-09T10:38:10.618Z,4.33
2017-07-09T10:40:37.375Z,2.67
2017-07-09T10:43:04.139Z,3.43
2017-07-09T10:45:30.942Z,4.00
2017-07-09T10:47:57.688Z,3.43
2017-07-09T10:50:24.428Z,2.50
2017-07-09T10:52:51.230Z,3.03
2017-07-09T10:55:17.971Z,2.93
2017-07-09T10:57:48.881Z,1.73
2017-07-09T11:00:19.891Z,2.17
2017-07-09T11:02:49.389Z,3.10
2017-07-09T11:05:16.541Z,2.53
2017-07-09T11:07:43.347Z,2.10
2017-07-09T11:10:10.102Z,3.47
2017-07-09T11:12:36.858Z,2.60
2017-07-09T11:15:03.723Z,2.20
2017-07-09T11:17:30.492Z,2.90
2017-07-09T11:19:57.259Z,3.10
2017-07-09T11:22:24.085Z,2.67
2017-07-09T11:24:51.450Z,4.00
2017-07-09T11:27:18.204Z,1.70
2017-07-09T11:29:45.010Z,8.00
2017-07-09T11:32:11.778Z,1.97
2017-07-09T11:34:38.520Z,2.10
2017-07-09T11:37:05.331Z,3.63
2017-07-09T11:39:32.103Z,3.00
2017-07-09T11:41:58.867Z,3.07
2017-07-09T11:44:25.650Z,2.30
2017-07-09T11:46:52.412Z,6.17
2017-07-09T11:49:19.811Z,4.70
2017-07-09T11:51:46.599Z,3.10
2017-07-09T11:54:13.353Z,2.60
2017-07-09T11:56:43.402Z,2.10
2017-07-09T11:59:11.014Z,4.50
2017-07-09T12:01:37.775Z,1.80
2017-07-09T12:04:04.524Z,3.70
2017-07-09T12:06:31.327Z,1.60
2017-07-09T12:08:58.092Z,1.63
2017-07-09T12:11:25.544Z,2.03
2017-07-09T12:13:52.339Z,3.13
2017-07-09T12:16:19.079Z,1.50
2017-07-09T12:18:45.823Z,3.80
2017-07-09T12:21:12.627Z,2.50
2017-07-09T12:23:39.394Z,1.97
2017-07-09T12:26:06.167Z,4.57
2017-07-09T12:28:32.953Z,1.53
2017-07-09T12:30:59.710Z,2.10
2017-07-09T12:33:26.958Z,2.13
2017-07-09T12:35:53.762Z,3.87
2017-07-09T12:38:20.522Z,2.13
2017-07-09T12:40:47.295Z,3.83
2017-07-09T12:43:14.354Z,3.20
2017-07-09T12:45:41.127Z,5.30
2017-07-09T12:48:07.899Z,1.73
2017-07-09T12:50:34.713Z,4.60
2017-07-09T12:53:01.456Z,1.50
2017-07-09T12:55:28.215Z,3.00
2017-07-09T12:57:55.004Z,3.20
2017-07-09T13:00:21.770Z,2.83
2017-07-09T13:02:48.584Z,4.57
2017-07-09T13:05:15.401Z,7.03
2017-07-09T13:07:42.144Z,5.73
2017-07-09T13:10:08.916Z,3.40
2017-07-09T13:12:35.719Z,2.70
2017-07-09T13:15:02.492Z,5.83
2017-07-09T13:17:29.243Z,2.97
2017-07-09T13:19:56.023Z,3.70
2017-07-09T13:22:22.764Z,5.13
2017-07-09T13:24:49.666Z,4.60
2017-07-09T13:27:16.886Z,2.30
2017-07-09T13:29:43.628Z,5.50
2017-07-09T13:32:10.375Z,7.30
2017-07-09T13:34:37.160Z,3.33
2017-07-09T13:37:03.924Z,3.40
2017-07-09T13:39:30.657Z,5.33
2017-07-09T13:41:57.452Z,2.97
2017-07-09T13:44:24.404Z,4.40
2017-07-09T13:46:51.146Z,1.77
2017-07-09T13:49:17.966Z,3.37
2017-07-09T13:51:45.219Z,3.87
2017-07-09T13:56:45.096Z,4.40
2017-07-09T13:59:11.850Z,2.73
2017-07-09T14:01:38.610Z,3.83
2017-07-09T14:04:05.415Z,1.90
2017-07-09T14:06:32.331Z,3.57
2017-07-09T14:08:59.386Z,9.77
2017-07-09T14:11:26.178Z,2.90
2017-07-09T14:13:52.940Z,4.80
2017-07-09T14:16:19.695Z,1.80
2017-07-09T14:18:46.472Z,3.73
2017-07-09T14:21:13.226Z,9.43
2017-07-09T14:23:40.810Z,5.80
2017-07-09T14:26:07.614Z,5.20
2017-07-09T14:28:34.389Z,3.40
2017-07-09T14:31:01.325Z,2.50
2017-07-09T14:33:28.120Z,1.40
2017-07-09T14:35:54.879Z,2.00
2017-07-09T14:38:21.652Z,1.63
2017-07-09T14:40:49.189Z,2.97
2017-07-09T14:43:15.957Z,5.00
2017-07-09T14:45:42.722Z,2.07
2017-07-09T14:48:09.518Z,3.17
2017-07-09T14:50:36.261Z,1.53
2017-07-09T14:53:03.010Z,5.70
2017-07-09T14:55:30.408Z,3.60
2017-07-09T14:57:57.148Z,4.13
2017-07-09T15:00:23.900Z,2.50
2017-07-09T15:02:50.694Z,6.60
2017-07-09T15:05:17.467Z,2.60
2017-07-09T15:07:44.208Z,5.07
2017-07-09T15:10:11.517Z,5.83
2017-07-09T15:12:38.261Z,1.80
2017-07-09T15:15:05.004Z,2.10
2017-07-09T15:17:31.805Z,3.70
2017-07-09T15:19:58.565Z,3.77
2017-07-09T15:22:25.303Z,2.70
2017-07-09T15:24:52.089Z,2.20
2017-07-09T15:27:18.859Z,3.57
2017-07-09T15:29:46.466Z,14.70
2017-07-09T15:32:13.277Z,1.77
2017-07-09T15:34:40.827Z,2.07
2017-07-09T15:37:07.568Z,3.80
2017-07-09T15:39:34.380Z,4.40
2017-07-09T15:42:01.139Z,2.80
2017-07-09T15:44:27.926Z,4.70
2017-07-09T15:46:54.711Z,1.70
2017-07-09T15:49:21.453Z,3.47
2017-07-09T15:51:48.220Z,1.73
2017-07-09T15:54:15.029Z,2.30
2017-07-09T15:56:41.809Z,2.63
2017-07-09T15:59:09.310Z,3.10
2017-07-09T16:01:36.097Z,5.50
2017-07-09T16:04:02.869Z,2.37
2017-07-09T16:06:29.612Z,6.03
2017-07-09T16:08:56.392Z,6.03
2017-07-09T16:11:23.162Z,3.37
2017-07-09T16:13:50.403Z,1.73
2017-07-09T16:16:17.195Z,3.20
2017-07-09T16:18:43.948Z,3.20
2017-07-09T16:21:10.710Z,6.00
2017-07-09T16:23:37.505Z,4.50
2017-07-09T16:26:04.946Z,1.93
2017-07-09T16:28:31.714Z,2.43
2017-07-09T16:30:59.048Z,1.77
2017-07-09T16:33:26.415Z,2.20
2017-07-09T16:35:53.646Z,3.70
2017-07-09T16:38:20.449Z,2.07
2017-07-09T16:40:47.804Z,3.03
2017-07-09T16:43:15.168Z,3.10
2017-07-09T16:45:41.956Z,2.37
2017-07-09T16:48:09.056Z,2.63
2017-07-09T16:50:36.518Z,3.80
2017-07-09T16:53:03.309Z,2.20
2017-07-09T16:55:30.091Z,2.00
2017-07-09T16:57:56.836Z,2.70
2017-07-09T17:00:23.634Z,7.00
2017-07-09T17:02:50.394Z,2.63
2017-07-09T17:05:17.135Z,3.37
2017-07-09T17:07:43.934Z,1.83
2017-07-09T17:10:11.461Z,2.90
2017-07-09T17:12:38.206Z,4.53
2017-07-09T17:15:04.993Z,1.50
2017-07-09T17:17:32.687Z,2.47
2017-07-09T17:19:59.451Z,3.17
2017-07-09T17:22:26.270Z,2.80
2017-07-09T17:24:53.089Z,3.00
2017-07-09T17:27:19.855Z,2.60
2017-07-09T17:29:46.661Z,3.03
2017-07-09T17:32:13.465Z,3.60
2017-07-09T17:34:40.379Z,2.23
2017-07-09T17:37:07.186Z,8.63
2017-07-09T17:39:33.926Z,2.07
2017-07-09T17:42:00.676Z,3.93
2017-07-09T17:44:27.458Z,6.60
2017-07-09T17:46:54.238Z,3.00
2017-07-09T17:49:21.002Z,2.30
2017-07-09T17:51:47.809Z,3.80
2017-07-09T17:54:14.654Z,3.93
2017-07-09T17:56:41.705Z,5.23
2017-07-09T17:59:08.488Z,2.53
2017-07-09T18:01:35.258Z,3.30
2017-07-09T18:04:02.619Z,3.37
2017-07-09T18:06:29.423Z,2.60
2017-07-09T18:08:56.360Z,5.20
2017-07-09T18:11:23.414Z,4.17
2017-07-09T18:13:50.219Z,3.70
2017-07-09T18:16:17.212Z,5.53
2017-07-09T18:18:43.986Z,3.47
2017-07-09T18:21:10.764Z,3.43
2017-07-09T18:23:37.512Z,3.93
2017-07-09T18:26:04.252Z,5.30
2017-07-09T18:28:31.087Z,4.50
2017-07-09T18:30:57.845Z,3.63
2017-07-09T18:33:24.604Z,6.67
2017-07-09T18:35:51.488Z,2.27
2017-07-09T18:38:18.546Z,2.77
2017-07-09T18:40:45.331Z,3.20
2017-07-09T18:43:12.160Z,6.80
2017-07-09T18:45:39.086Z,4.73
2017-07-09T18:48:06.138Z,4.13
2017-07-09T18:50:33.401Z,2.30
2017-07-09T18:53:00.176Z,2.27
2017-07-09T18:55:26.991Z,6.07
2017-07-09T18:57:53.791Z,3.10
2017-07-09T19:00:20.559Z,2.40
2017-07-09T19:02:47.308Z,5.87
2017-07-09T19:05:14.122Z,4.37
2017-07-09T19:07:41.950Z,5.03
2017-07-09T19:10:09.002Z,5.50
2017-07-09T19:12:35.811Z,1.93
2017-07-09T19:15:02.548Z,4.70
2017-07-09T19:17:29.303Z,4.13
2017-07-09T19:19:56.111Z,4.37
2017-07-09T19:22:22.867Z,2.20
2017-07-09T19:24:49.612Z,5.20
2017-07-09T19:27:16.840Z,4.10
2017-07-09T19:29:43.616Z,3.37
2017-07-09T19:32:10.365Z,2.87
2017-07-09T19:34:37.180Z,3.73
2017-07-09T19:37:04.267Z,2.30
2017-07-09T19:39:31.069Z,6.17
2017-07-09T19:41:57.874Z,5.60
2017-07-09T19:44:24.606Z,4.40
2017-07-09T19:46:51.348Z,2.67
2017-07-09T19:49:18.155Z,3.57
2017-07-09T19:51:45.238Z,8.43
2017-07-09T19:54:11.981Z,6.67
2017-07-09T19:56:38.795Z,6.63
2017-07-09T19:59:05.540Z,2.43
2017-07-09T20:01:32.323Z,3.63
2017-07-09T20:03:59.107Z,3.60
2017-07-09T20:06:25.880Z,5.77
2017-07-09T20:08:52.627Z,4.47
2017-07-09T20:11:19.411Z,4.20
2017-07-09T20:13:46.160Z,8.93
2017-07-09T20:16:13.743Z,2.73
2017-07-09T20:18:40.527Z,4.70
2017-07-09T20:21:07.328Z,6.33
2017-07-09T20:23:34.106Z,3.33
2017-07-09T20:26:01.192Z,5.53
2017-07-09T20:28:27.983Z,3.40
2017-07-09T20:30:54.739Z,3.40
2017-07-09T20:33:21.559Z,6.70
2017-07-09T20:35:48.319Z,11.00
2017-07-09T20:38:15.095Z,4.13
2017-07-09T20:40:41.893Z,5.77
2017-07-09T20:43:08.663Z,9.87
2017-07-09T20:45:35.420Z,3.20
2017-07-09T20:48:02.235Z,3.10
2017-07-09T20:50:29.006Z,3.00
2017-07-09T20:52:55.766Z,5.53
2017-07-09T20:55:22.567Z,4.67
2017-07-09T20:57:49.321Z,3.57
2017-07-09T21:00:16.107Z,3.93
2017-07-09T21:02:43.646Z,5.70
2017-07-09T21:05:10.413Z,7.90
2017-07-09T21:07:37.221Z,3.13
2017-07-09T21:10:04.064Z,8.30
2017-07-09T21:12:30.843Z,2.47
2017-07-09T21:14:57.612Z,2.70
2017-07-09T21:17:24.420Z,6.00
2017-07-09T21:19:51.183Z,3.80
2017-07-09T21:22:17.957Z,5.83
2017-07-09T21:24:45.845Z,3.60
2017-07-09T21:27:12.589Z,2.90
2017-07-09T21:29:39.324Z,6.63
2017-07-09T21:32:06.135Z,5.10
2017-07-09T21:34:32.901Z,6.00
2017-07-09T21:36:59.642Z,4.77
2017-07-09T21:39:26.445Z,10.23
2017-07-09T21:41:53.211Z,5.10
2017-07-09T21:44:19.983Z,6.20
2017-07-09T21:46:46.769Z,12.23
2017-07-09T21:49:14.241Z,4.00
2017-07-09T21:51:41.003Z,3.40
2017-07-09T21:54:07.803Z,4.90
2017-07-09T21:56:34.574Z,4.37
2017-07-09T21:59:01.339Z,2.70
2017-07-09T22:01:28.113Z,3.93
2017-07-09T22:03:54.886Z,3.57
2017-07-09T22:06:21.677Z,4.57
2017-07-09T22:08:48.471Z,3.53
2017-07-09T22:11:15.235Z,6.10
2017-07-09T22:13:42.002Z,5.20
2017-07-09T22:16:08.787Z,3.60
2017-07-09T22:18:35.547Z,4.10
